Time;durP1;ratioP1;P1;durP2;ratioP2;P2;SDS_P1;SDS_P2;PMS_P1;PMS_P2;Temp;Humidity;BMP_temperature;BMP_pressure;BME280_temperature;BME280_humidity;BME280_pressure;Samples;Min_cycle;Max_cycle;Signal;HPM_P1;HPM_P2
2022/04/11 00:00:18;;;;;;;6.50;3.20;;;20.90;87.50;;;;;;5094176;28;20067;-71
2022/04/11 00:02:45;;;;;;;5.50;2.60;;;21.00;87.30;;;;;;5112625;28;20176;-72
2022/04/11 00:05:12;;;;;;;5.53;2.50;;;21.10;86.90;;;;;;5112435;28;20039;-72
2022/04/11 00:07:39;;;;;;;6.82;2.95;;;21.10;87.00;;;;;;5112212;28;20032;-72
2022/04/11 00:10:07;;;;;;;7.07;2.70;;;21.20;86.80;;;;;;5093789;28;20035;-72
2022/04/11 00:12:35;;;;;;;8.63;2.63;;;21.20;86.60;;;;;;5093864;28;20031;-71
2022/04/11 00:15:06;;;;;;;4.07;2.40;;;21.20;86.50;;;;;;5094026;28;20416;-72
2022/04/11 00:17:34;;;;;;;9.13;2.72;;;21.30;86.40;;;;;;5111753;28;20051;-72
2022/04/11 00:20:01;;;;;;;4.82;2.53;;;21.30;86.20;;;;;;5111614;28;20038;-72
2022/04/11 00:22:29;;;;;;;5.40;2.35;;;21.30;85.90;;;;;;5111515;28;20508;-73
2022/04/11 00:24:56;;;;;;;6.22;2.30;;;21.40;86.30;;;;;;5077154;28;20039;-72
2022/04/11 00:27:23;;;;;;;5.22;2.20;;;21.40;85.10;;;;;;5111882;28;20393;-72
2022/04/11 00:29:50;;;;;;;3.67;2.30;;;21.40;85.20;;;;;;5101852;27;20483;-71
2022/04/11 00:32:17;;;;;;;4.30;2.10;;;21.50;84.70;;;;;;5114693;27;20513;-71
2022/04/11 00:34:44;;;;;;;5.90;2.53;;;21.50;84.60;;;;;;5107148;27;20039;-72
2022/04/11 00:37:12;;;;;;;5.57;2.55;;;21.50;84.50;;;;;;5124460;27;20097;-72
2022/04/11 00:39:39;;;;;;;6.63;2.17;;;21.60;84.60;;;;;;5121533;27;20028;-72
2022/04/11 00:42:14;;;;;;;3.65;2.00;;;21.60;85.00;;;;;;5116767;27;20080;-72
2022/04/11 00:44:41;;;;;;;3.35;1.85;;;21.70;83.90;;;;;;5118585;27;20501;-72
2022/04/11 00:47:09;;;;;;;6.78;2.33;;;21.70;83.70;;;;;;5101677;28;20031;-72
2022/04/11 00:49:36;;;;;;;3.20;2.00;;;21.70;84.10;;;;;;5119050;27;20035;-72
2022/04/11 00:52:04;;;;;;;5.43;2.28;;;21.80;83.50;;;;;;5112525;27;20085;-72
2022/04/11 00:54:31;;;;;;;4.20;2.50;;;21.80;83.70;;;;;;5076818;28;20093;-72
2022/04/11 00:56:58;;;;;;;4.93;2.13;;;21.80;83.20;;;;;;5090832;28;20036;-71
2022/04/11 00:59:25;;;;;;;3.67;2.05;;;21.80;83.20;;;;;;5109903;27;20033;-70
2022/04/11 01:01:53;;;;;;;5.72;2.20;;;21.80;83.30;;;;;;5080719;27;20490;-70
2022/04/11 01:04:23;;;;;;;4.72;2.15;;;21.90;83.10;;;;;;5103885;28;20486;-71
2022/04/11 01:06:51;;;;;;;6.25;2.20;;;22.00;83.60;;;;;;5106104;28;20042;-70
2022/04/11 01:09:18;;;;;;;4.55;2.13;;;22.00;82.80;;;;;;5130366;27;20106;-70
2022/04/11 01:11:46;;;;;;;4.57;1.90;;;22.00;83.20;;;;;;5098169;27;20054;-71
2022/04/11 01:14:13;;;;;;;4.68;2.10;;;22.10;82.70;;;;;;5093232;28;20019;-70
2022/04/11 01:16:40;;;;;;;4.18;2.38;;;22.10;83.00;;;;;;5108925;28;20085;-70
2022/04/11 01:19:07;;;;;;;3.15;1.70;;;22.10;82.10;;;;;;5109331;28;20028;-70
2022/04/11 01:21:34;;;;;;;6.28;2.30;;;22.10;82.20;;;;;;5094110;28;20035;-71
2022/04/11 01:24:01;;;;;;;3.25;1.80;;;22.20;82.10;;;;;;5110804;28;20597;-71
2022/04/11 01:26:29;;;;;;;5.70;1.92;;;22.30;82.50;;;;;;5121362;28;20039;-70
2022/04/11 01:28:56;;;;;;;3.78;2.08;;;22.30;81.70;;;;;;5101555;28;20039;-70
2022/04/11 01:31:25;;;;;;;6.90;2.03;;;22.20;81.60;;;;;;5110890;28;20031;-70
2022/04/11 01:33:52;;;;;;;4.20;1.92;;;22.30;82.00;;;;;;5110676;28;20069;-70
2022/04/11 01:36:19;;;;;;;6.50;2.20;;;22.30;81.50;;;;;;5085264;28;20408;-69
2022/04/11 01:38:46;;;;;;;3.58;2.08;;;22.30;81.90;;;;;;5110886;28;20489;-69
2022/04/11 01:41:13;;;;;;;5.82;1.83;;;22.30;82.10;;;;;;5110591;28;20068;-70
2022/04/11 01:43:41;;;;;;;4.72;1.80;;;22.40;80.80;;;;;;5110076;28;20461;-70
2022/04/11 01:46:08;;;;;;;3.05;1.80;;;22.40;81.80;;;;;;5108131;28;20107;-71
2022/04/11 02:35:16;;;;;;;2.60;1.00;;;23.10;74.10;;;;;;5113989;27;20050;-70
2022/04/11 02:37:44;;;;;;;3.10;1.30;;;23.20;72.80;;;;;;5114266;28;20028;-71
2022/04/11 02:40:12;;;;;;;1.30;1.02;;;23.30;73.20;;;;;;5108935;28;20028;-70
2022/04/11 02:42:42;;;;;;;1.25;0.90;;;23.30;72.30;;;;;;5107435;27;20045;-71
2022/04/11 02:45:09;;;;;;;;;;;23.30;72.20;;;;;;5103314;28;20027;-70
2022/04/11 02:47:36;;;;;;;4.70;1.55;;;23.30;71.90;;;;;;5113653;28;19907;-70
2022/04/11 02:50:04;;;;;;;5.80;1.80;;;23.30;73.10;;;;;;5102711;27;20081;-70
2022/04/11 02:52:32;;;;;;;5.25;1.33;;;23.30;71.70;;;;;;5119259;27;20035;-70
2022/04/11 02:55:00;;;;;;;1.83;1.23;;;23.30;70.60;;;;;;5122605;27;20041;-71
2022/04/11 02:57:28;;;;;;;4.70;1.58;;;23.30;69.60;;;;;;5125031;27;20038;-71
2022/04/11 02:59:56;;;;;;;2.65;0.95;;;23.30;69.40;;;;;;5082938;28;20032;-71
2022/04/11 03:02:23;;;;;;;13.43;1.77;;;23.30;67.40;;;;;;5113094;28;20118;-71
2022/04/11 03:04:50;;;;;;;4.45;1.45;;;23.30;69.60;;;;;;5113002;27;20057;-71
2022/04/11 03:07:18;;;;;;;2.78;1.00;;;23.30;68.30;;;;;;5107280;27;20032;-71
2022/04/11 03:09:46;;;;;;;1.02;0.82;;;23.30;68.40;;;;;;5123401;27;20055;-70
2022/04/11 03:12:13;;;;;;;2.42;1.00;;;23.40;66.60;;;;;;5113111;28;20039;-71
2022/04/11 03:14:40;;;;;;;1.45;0.90;;;23.40;66.00;;;;;;5122823;27;20512;-71
2022/04/11 03:17:07;;;;;;;1.33;1.00;;;23.50;66.60;;;;;;5113446;27;20044;-71
2022/04/11 03:19:34;;;;;;;2.85;1.20;;;23.50;67.70;;;;;;5113313;28;20031;-72
2022/04/11 03:22:01;;;;;;;3.08;1.25;;;23.40;66.60;;;;;;5113587;28;20401;-71
2022/04/11 03:24:29;;;;;;;9.80;1.90;;;23.40;66.70;;;;;;5113215;28;20502;-71
2022/04/11 03:26:56;;;;;;;7.45;1.90;;;23.50;67.70;;;;;;5112563;28;20024;-72
2022/04/11 03:29:23;;;;;;;4.35;1.70;;;23.50;68.40;;;;;;5111885;28;20031;-70
2022/04/11 03:31:50;;;;;;;3.33;1.15;;;23.60;66.60;;;;;;5113637;28;20153;-72
2022/04/11 03:34:17;;;;;;;3.80;1.48;;;23.60;66.90;;;;;;5111814;28;20049;-71
2022/04/11 03:36:45;;;;;;;2.80;1.33;;;23.60;68.60;;;;;;5113121;28;20034;-71
2022/04/11 03:39:12;;;;;;;2.50;1.20;;;23.60;66.20;;;;;;5111546;28;20154;-72
2022/04/11 03:41:43;;;;;;;1.30;1.10;;;23.60;67.30;;;;;;5111832;28;20028;-71
2022/04/11 03:44:10;;;;;;;2.28;1.00;;;23.60;67.80;;;;;;5113476;28;20044;-72
2022/04/11 03:46:38;;;;;;;6.63;1.73;;;23.60;66.90;;;;;;5112057;28;20031;-71
2022/04/11 03:49:06;;;;;;;5.63;1.35;;;23.60;67.90;;;;;;5096248;27;20503;-72
2022/04/11 03:51:33;;;;;;;8.48;1.92;;;23.60;68.40;;;;;;5100428;27;20063;-72
2022/04/11 03:54:01;;;;;;;2.10;1.23;;;23.60;68.70;;;;;;5105238;27;20037;-71
2022/04/11 03:56:28;;;;;;;4.75;1.60;;;23.50;67.10;;;;;;5078168;28;20389;-71
2022/04/11 03:58:55;;;;;;;2.65;1.13;;;23.50;67.80;;;;;;5118891;27;20096;-71
2022/04/11 04:01:22;;;;;;;3.30;1.45;;;23.50;66.30;;;;;;5133236;27;20031;-71
2022/04/11 04:03:49;;;;;;;8.60;1.85;;;23.50;66.50;;;;;;5114860;27;20492;-71
2022/04/11 04:06:17;;;;;;;4.22;1.27;;;23.50;67.60;;;;;;5128119;27;20398;-72
2022/04/11 04:08:44;;;;;;;5.38;1.60;;;23.60;68.90;;;;;;5122095;27;20059;-72
2022/04/11 04:11:11;;;;;;;6.57;1.95;;;23.80;69.80;;;;;;5094363;27;20035;-72
2022/04/11 04:13:38;;;;;;;5.75;1.60;;;23.90;70.80;;;;;;5125214;27;20082;-71
2022/04/11 04:18:31;;;;;;;8.75;2.25;;;24.00;68.40;;;;;;5109837;28;20039;-71
2022/04/11 04:20:58;;;;;;;4.85;1.40;;;23.90;69.10;;;;;;5115994;27;20036;-72
2022/04/11 04:23:25;;;;;;;4.53;1.52;;;23.90;68.50;;;;;;5098639;27;20048;-71
2022/04/11 04:25:52;;;;;;;4.22;1.52;;;24.00;68.70;;;;;;5126575;27;20037;-70
2022/04/11 04:28:19;;;;;;;2.70;1.40;;;23.90;68.90;;;;;;5114100;27;20038;-71
2022/04/11 04:30:47;;;;;;;4.07;1.48;;;23.90;68.60;;;;;;5120570;27;20560;-71
2022/04/11 04:33:14;;;;;;;4.40;1.42;;;23.90;70.00;;;;;;5127752;27;20050;-71
2022/04/11 04:35:41;;;;;;;6.53;1.83;;;23.80;69.50;;;;;;5113824;27;20023;-72
2022/04/11 04:38:08;;;;;;;18.75;2.83;;;23.80;70.30;;;;;;5131902;27;20027;-71
2022/04/11 04:40:35;;;;;;;4.82;1.90;;;23.80;70.40;;;;;;5113809;27;20024;-71
2022/04/11 04:43:04;;;;;;;8.70;1.60;;;23.80;70.90;;;;;;5124370;27;20068;-71
2022/04/11 04:45:31;;;;;;;4.50;1.85;;;23.80;67.60;;;;;;5119506;27;20027;-71
2022/04/11 04:47:58;;;;;;;6.93;1.95;;;23.80;69.40;;;;;;5128332;27;20038;-72
2022/04/11 04:50:25;;;;;;;3.08;1.40;;;23.80;66.80;;;;;;5139128;27;20019;-68
2022/04/11 04:52:53;;;;;;;3.10;1.52;;;23.90;65.60;;;;;;5133730;27;20052;-71
2022/04/11 04:55:20;;;;;;;2.78;1.25;;;23.80;67.20;;;;;;5131520;27;20057;-72
2022/04/11 04:57:47;;;;;;;4.80;1.52;;;23.80;65.20;;;;;;5114249;27;20106;-71
2022/04/11 05:00:14;;;;;;;4.13;1.60;;;23.80;65.20;;;;;;5128457;27;20038;-70
2022/04/11 05:02:43;;;;;;;8.82;2.03;;;23.80;66.20;;;;;;5100883;27;20043;-68
2022/04/11 05:05:12;;;;;;;3.25;1.55;;;23.70;67.30;;;;;;5118442;27;20048;-71
2022/04/11 05:07:39;;;;;;;7.18;1.60;;;23.60;67.10;;;;;;5107792;27;20031;-69
2022/04/11 05:10:06;;;;;;;4.88;1.48;;;23.70;67.70;;;;;;5099072;28;20059;-70
2022/04/11 05:12:43;;;;;;;6.05;2.05;;;23.60;67.40;;;;;;5147905;27;20046;-69
2022/04/11 05:15:11;;;;;;;6.47;1.60;;;23.60;68.80;;;;;;5110792;28;20525;-70
2022/04/11 05:23:09;;;;;;;4.47;1.48;;;23.50;70.90;;;;;;5113385;27;20447;-69
2022/04/11 05:25:37;;;;;;;5.20;1.35;;;23.50;70.40;;;;;;5108022;27;20489;-70
2022/04/11 05:28:04;;;;;;;7.47;1.60;;;23.50;71.20;;;;;;5131781;27;20035;-69
2022/04/11 05:30:35;;;;;;;13.40;2.10;;;23.40;72.70;;;;;;5118777;27;20038;-70
2022/04/11 05:33:03;;;;;;;5.10;1.60;;;23.30;73.40;;;;;;5110539;27;20430;-69
2022/04/11 05:35:30;;;;;;;6.72;1.50;;;23.30;73.40;;;;;;5113548;27;20061;-70
2022/04/11 05:37:57;;;;;;;7.13;1.55;;;23.30;73.50;;;;;;5114946;27;20032;-70
2022/04/11 05:40:24;;;;;;;4.97;1.48;;;23.30;73.30;;;;;;5129308;27;20047;-71
2022/04/11 05:42:51;;;;;;;12.05;2.03;;;23.30;70.70;;;;;;5127445;27;20038;-71
2022/04/11 05:45:18;;;;;;;3.90;1.30;;;23.30;68.50;;;;;;5117641;27;20612;-71
2022/04/11 05:47:46;;;;;;;5.43;1.60;;;23.20;67.50;;;;;;5113074;27;20057;-71
2022/04/11 05:50:13;;;;;;;9.82;1.77;;;23.20;66.80;;;;;;5132337;27;20046;-71
2022/04/11 05:52:40;;;;;;;2.05;1.33;;;23.20;69.30;;;;;;5132172;27;20065;-70
2022/04/11 05:55:07;;;;;;;9.13;2.22;;;23.20;68.90;;;;;;5115118;27;20035;-70
2022/04/11 05:57:35;;;;;;;3.00;1.63;;;23.10;69.80;;;;;;5113120;27;20035;-71
2022/04/11 06:00:02;;;;;;;8.02;1.80;;;23.10;71.20;;;;;;5133095;27;20046;-71
2022/04/11 06:02:29;;;;;;;8.30;2.17;;;23.10;72.50;;;;;;5097359;27;20046;-69
2022/04/11 06:04:56;;;;;;;14.23;3.00;;;23.00;73.20;;;;;;5115583;27;20051;-70
2022/04/11 06:07:26;;;;;;;9.32;2.47;;;22.90;74.40;;;;;;5133238;27;20028;-70
2022/04/11 06:09:54;;;;;;;6.68;1.92;;;22.80;74.70;;;;;;5131549;27;20027;-70
2022/04/11 06:12:24;;;;;;;7.88;1.80;;;22.90;74.00;;;;;;5116735;27;20061;-72
2022/04/11 06:14:53;;;;;;;6.30;1.85;;;22.80;74.70;;;;;;5112905;28;20570;-73
2022/04/11 06:17:24;;;;;;;6.60;2.67;;;22.80;75.40;;;;;;5116681;27;20038;-71
2022/04/11 06:19:54;;;;;;;9.18;2.25;;;22.80;75.90;;;;;;5116820;27;20043;-71
2022/04/11 06:22:22;;;;;;;4.35;1.65;;;22.80;76.40;;;;;;5123997;27;20055;-71
2022/04/11 06:24:49;;;;;;;3.92;1.70;;;22.80;76.80;;;;;;5099671;27;20531;-71
2022/04/11 06:27:20;;;;;;;10.20;2.00;;;22.80;77.60;;;;;;5094127;28;20031;-70
2022/04/11 06:29:47;;;;;;;4.40;2.00;;;22.70;78.90;;;;;;5156525;27;20049;-71
2022/04/11 06:32:14;;;;;;;6.55;1.90;;;22.70;80.10;;;;;;5122213;27;20114;-72
2022/04/11 06:34:42;;;;;;;11.95;2.60;;;22.60;80.80;;;;;;5136867;27;20057;-71
2022/04/11 06:37:09;;;;;;;8.93;2.53;;;22.50;82.00;;;;;;5143185;27;20027;-72
2022/04/11 06:39:36;;;;;;;9.13;2.28;;;22.50;82.00;;;;;;5139190;27;20039;-72
2022/04/11 06:42:03;;;;;;;10.35;2.58;;;22.50;82.50;;;;;;5131655;27;20434;-72
2022/04/11 06:44:32;;;;;;;7.68;1.92;;;22.50;82.70;;;;;;5133986;27;20043;-71
2022/04/11 06:47:00;;;;;;;7.40;1.98;;;22.50;82.80;;;;;;5130853;27;20377;-70
2022/04/11 06:49:28;;;;;;;19.38;3.58;;;22.40;83.40;;;;;;5117993;27;20537;-71
2022/04/11 06:51:55;;;;;;;8.73;2.47;;;22.40;83.70;;;;;;5128893;27;20039;-69
2022/04/11 06:54:22;;;;;;;14.00;2.60;;;22.40;83.70;;;;;;5138321;27;20508;-70
2022/04/11 06:56:49;;;;;;;32.67;5.18;;;22.50;84.20;;;;;;5112974;27;20023;-72
2022/04/11 06:59:16;;;;;;;7.35;2.00;;;22.60;84.10;;;;;;5132724;27;20373;-73
2022/04/11 07:01:44;;;;;;;9.25;2.42;;;22.50;84.00;;;;;;5147296;27;20027;-71
2022/04/11 07:04:11;;;;;;;14.93;3.47;;;22.40;83.80;;;;;;5120192;27;20039;-70
2022/04/11 07:06:38;;;;;;;7.30;2.13;;;22.40;83.80;;;;;;5133676;27;20144;-70
2022/04/11 07:09:05;;;;;;;11.48;2.83;;;22.40;83.80;;;;;;5139347;27;20035;-70
2022/04/11 07:11:32;;;;;;;12.27;2.95;;;22.30;83.90;;;;;;5141396;27;20392;-70
2022/04/11 07:14:00;;;;;;;8.90;2.60;;;22.30;84.30;;;;;;5108913;27;20483;-68
2022/04/11 07:16:27;;;;;;;19.67;3.15;;;22.30;84.50;;;;;;5119853;27;20057;-69
2022/04/11 07:18:54;;;;;;;12.13;2.97;;;22.30;84.90;;;;;;5126306;27;20561;-68
2022/04/11 07:21:21;;;;;;;13.38;2.80;;;22.20;84.60;;;;;;5129522;27;20070;-69
2022/04/11 07:23:48;;;;;;;12.48;3.25;;;22.30;84.40;;;;;;5110935;27;20071;-70
2022/04/11 07:26:16;;;;;;;14.82;3.42;;;22.20;84.60;;;;;;5141357;27;20022;-71
2022/04/11 07:28:43;;;;;;;12.25;3.45;;;22.20;85.00;;;;;;5128865;27;20183;-71
2022/04/11 07:31:10;;;;;;;17.45;3.15;;;22.20;85.00;;;;;;5119935;27;20023;-70
2022/04/11 07:33:37;;;;;;;13.93;3.50;;;22.20;85.60;;;;;;5122014;27;20364;-71
2022/04/11 07:36:05;;;;;;;15.63;3.90;;;22.10;85.80;;;;;;5153852;27;20043;-70
2022/04/11 07:38:32;;;;;;;16.38;3.28;;;22.10;86.00;;;;;;5106287;27;20043;-68
2022/04/11 07:40:59;;;;;;;19.02;4.28;;;22.10;86.20;;;;;;5134735;27;20031;-68
2022/04/11 07:43:26;;;;;;;25.20;5.38;;;22.10;86.70;;;;;;5114559;27;20101;-68
2022/04/11 07:45:53;;;;;;;22.10;5.13;;;22.10;86.90;;;;;;5144618;27;20080;-67
2022/04/11 07:48:21;;;;;;;23.92;5.57;;;22.00;87.10;;;;;;5126109;27;20039;-68
2022/04/11 07:50:48;;;;;;;29.38;6.53;;;22.10;87.30;;;;;;5121531;27;20095;-69
2022/04/11 07:53:15;;;;;;;24.65;5.85;;;22.00;87.40;;;;;;5136129;27;20093;-69
2022/04/11 07:55:44;;;;;;;24.48;6.85;;;22.00;87.60;;;;;;5152180;27;20415;-70
2022/04/11 07:58:12;;;;;;;24.92;6.30;;;22.00;87.80;;;;;;5119528;27;20028;-69
2022/04/11 08:00:39;;;;;;;31.20;7.70;;;21.90;87.50;;;;;;5137433;27;20269;-70
2022/04/11 08:03:06;;;;;;;26.77;7.78;;;22.00;87.30;;;;;;5123498;27;20082;-69
2022/04/11 08:05:33;;;;;;;28.90;7.00;;;22.00;87.40;;;;;;5119742;27;20031;-70
2022/04/11 08:08:01;;;;;;;31.60;6.40;;;21.90;87.10;;;;;;5131585;27;20019;-68
2022/04/11 08:10:28;;;;;;;31.17;7.25;;;21.90;87.00;;;;;;5145050;27;20053;-69
2022/04/11 08:12:59;;;;;;;25.02;6.07;;;21.80;86.70;;;;;;5133640;27;20106;-68
2022/04/11 08:15:27;;;;;;;20.38;6.10;;;21.80;86.50;;;;;;5115335;27;20035;-69
2022/04/11 08:17:54;;;;;;;20.33;5.20;;;21.80;86.40;;;;;;5098956;27;20083;-68
2022/04/11 08:20:22;;;;;;;24.10;5.70;;;21.80;86.20;;;;;;5113763;27;20062;-69
2022/04/11 08:22:49;;;;;;;24.30;5.90;;;21.80;86.30;;;;;;5100887;27;20134;-70
2022/04/11 08:25:17;;;;;;;27.33;6.40;;;21.80;86.30;;;;;;5112887;27;20031;-70
2022/04/11 08:27:44;;;;;;;22.88;5.88;;;21.80;86.30;;;;;;5122482;27;20347;-69
2022/04/11 08:30:13;;;;;;;28.52;5.75;;;21.80;86.60;;;;;;5145016;27;20035;-68
2022/04/11 08:32:40;;;;;;;25.45;5.90;;;21.80;85.80;;;;;;5149822;27;20031;-69
2022/04/11 08:35:08;;;;;;;24.00;5.45;;;21.80;86.10;;;;;;5128196;27;20389;-70
2022/04/11 08:37:37;;;;;;;22.45;5.53;;;21.80;86.00;;;;;;5122520;27;20038;-69
2022/04/11 08:40:06;;;;;;;30.85;5.80;;;21.80;86.00;;;;;;5119997;27;20097;-69
2022/04/11 08:42:33;;;;;;;30.90;5.77;;;21.80;85.80;;;;;;5108337;27;20035;-69
2022/04/11 08:45:01;;;;;;;23.00;5.32;;;21.80;85.80;;;;;;5120370;27;20035;-69
2022/04/11 08:47:28;;;;;;;22.50;5.70;;;21.80;86.00;;;;;;5097551;28;20038;-69
2022/04/11 08:49:55;;;;;;;20.27;5.00;;;21.80;86.20;;;;;;5093940;28;20113;-69
2022/04/11 08:52:22;;;;;;;22.90;5.38;;;21.80;86.50;;;;;;5115539;27;20161;-71
2022/04/11 08:54:50;;;;;;;25.50;4.97;;;21.80;86.70;;;;;;5113703;27;20399;-70
2022/04/11 08:57:17;;;;;;;26.55;5.45;;;21.70;86.60;;;;;;5095716;28;20035;-71
2022/04/11 09:38:09;;;;;;;19.52;4.40;;;21.70;85.40;;;;;;5117657;27;20710;-70
2022/04/11 09:40:48;;;;;;;18.38;4.53;;;21.70;85.60;;;;;;5100457;28;20039;-70
2022/04/11 09:43:16;;;;;;;22.80;4.93;;;21.70;85.40;;;;;;5114458;28;20502;-71
2022/04/11 09:45:48;;;;;;;19.75;4.43;;;21.70;85.40;;;;;;5110001;28;20077;-71
2022/04/11 09:48:21;;;;;;;19.90;4.40;;;21.60;85.30;;;;;;5110762;28;20050;-71
2022/04/11 09:50:49;;;;;;;20.98;4.40;;;21.60;85.50;;;;;;5092878;28;20395;-70
2022/04/11 09:53:18;;;;;;;19.23;4.82;;;21.60;85.60;;;;;;5123488;28;20082;-69
2022/04/11 09:55:46;;;;;;;26.10;4.70;;;21.60;85.70;;;;;;5130050;28;20095;-70
2022/04/11 09:58:14;;;;;;;26.75;4.93;;;21.60;86.10;;;;;;5120202;28;20534;-70
2022/04/11 10:00:43;;;;;;;26.50;5.47;;;21.50;86.70;;;;;;5115212;28;20039;-71
2022/04/11 10:03:10;;;;;;;24.45;5.28;;;21.50;87.50;;;;;;5128833;28;20078;-71
2022/04/11 10:05:38;;;;;;;28.80;5.60;;;21.40;87.90;;;;;;5130524;28;20067;-70
2022/04/11 10:08:07;;;;;;;23.35;4.38;;;21.30;88.20;;;;;;5125547;28;20034;-71
2022/04/11 10:10:38;;;;;;;27.58;5.53;;;21.30;88.70;;;;;;5117562;28;20035;-70
2022/04/11 10:13:07;;;;;;;23.10;5.00;;;21.30;88.70;;;;;;5110513;28;20036;-70
2022/04/11 10:15:34;;;;;;;24.55;4.78;;;21.30;88.90;;;;;;5120718;27;20028;-72
2022/04/11 10:18:01;;;;;;;26.15;5.32;;;21.20;89.00;;;;;;5115916;27;20091;-72
2022/04/11 10:20:30;;;;;;;20.15;5.00;;;21.20;89.10;;;;;;5104861;27;20034;-72
2022/04/11 10:23:28;;;;;;;19.38;5.10;;;21.20;88.80;;;;;;5112194;28;20113;-70
2022/04/11 10:25:56;;;;;;;20.98;4.80;;;21.20;88.70;;;;;;5114528;28;20027;-71
2022/04/11 10:28:24;;;;;;;24.70;5.60;;;21.20;88.90;;;;;;5095737;28;20039;-71
2022/04/11 10:31:10;;;;;;;27.17;5.63;;;21.20;88.90;;;;;;5112490;27;20023;-71
2022/04/11 10:33:57;;;;;;;24.83;5.05;;;21.30;89.00;;;;;;5095646;28;20058;-72
2022/04/11 10:36:38;;;;;;;25.65;4.60;;;21.30;89.00;;;;;;5123653;27;20027;-72
2022/04/11 11:26:11;;;;;;;20.13;4.22;;;21.20;88.40;;;;;;5085889;27;20123;-70
2022/04/11 11:28:41;;;;;;;24.00;4.97;;;21.10;88.00;;;;;;5101298;28;20442;-69
2022/04/11 11:31:08;;;;;;;;;;;21.10;87.60;;;;;;5130797;27;20035;-69
2022/04/11 11:33:35;;;;;;;27.10;4.97;;;21.20;88.60;;;;;;5113681;27;20301;-71
2022/04/11 11:36:03;;;;;;;23.00;5.20;;;21.20;88.80;;;;;;5099255;27;20111;-70
2022/04/11 11:38:31;;;;;;;18.35;4.07;;;21.20;88.70;;;;;;5112516;27;20031;-69
2022/04/11 11:41:03;;;;;;;18.85;3.90;;;21.10;87.40;;;;;;5094433;28;20055;-70
2022/04/11 11:43:31;;;;;;;25.23;4.78;;;21.10;87.90;;;;;;5124816;27;20043;-69
2022/04/11 11:46:03;;;;;;;23.15;4.43;;;21.20;88.40;;;;;;5130584;27;20023;-69
2022/04/11 11:48:34;;;;;;;22.40;4.95;;;21.20;88.80;;;;;;5131127;27;20520;-68
2022/04/11 11:51:01;;;;;;;21.90;4.78;;;21.10;89.10;;;;;;5132687;27;20041;-68
2022/04/11 11:53:51;;;;;;;17.50;4.35;;;21.10;89.30;;;;;;5095322;27;20043;-68
2022/04/11 11:56:18;;;;;;;18.60;4.50;;;21.00;88.50;;;;;;5090514;27;20558;-68
2022/04/11 11:58:46;;;;;;;19.92;4.10;;;20.90;87.40;;;;;;5103868;27;20047;-68
2022/04/11 12:01:14;;;;;;;22.95;4.13;;;21.00;88.70;;;;;;5124515;27;20082;-68
2022/04/11 12:06:31;;;;;;;23.67;4.25;;;20.90;89.10;;;;;;5122088;27;20080;-69
2022/04/11 12:09:01;;;;;;;23.95;4.68;;;20.80;89.10;;;;;;5132465;27;20031;-69
2022/04/11 12:11:29;;;;;;;26.75;4.47;;;20.80;89.70;;;;;;5136406;27;20037;-69
2022/04/11 12:14:07;;;;;;;22.33;4.45;;;20.80;89.80;;;;;;5152940;27;20031;-69
2022/04/11 12:16:38;;;;;;;24.17;4.32;;;20.80;89.30;;;;;;5120908;27;20153;-70
2022/04/11 12:19:06;;;;;;;21.58;3.97;;;20.70;89.50;;;;;;5112305;27;20035;-70
2022/04/11 12:21:40;;;;;;;21.10;4.15;;;20.70;89.30;;;;;;5131713;27;20039;-70
2022/04/11 12:24:09;;;;;;;21.40;4.55;;;20.70;88.90;;;;;;5135687;27;20446;-71
2022/04/11 15:49:00;;;;;;;9.02;2.40;;;18.70;89.50;;;;;;5107055;27;20067;-71
2022/04/11 15:51:27;;;;;;;8.90;2.03;;;18.70;89.70;;;;;;5113371;27;20036;-71
2022/04/11 15:53:55;;;;;;;12.68;1.95;;;18.70;88.60;;;;;;5094523;28;20118;-70
2022/04/11 15:56:22;;;;;;;14.38;1.95;;;18.70;88.20;;;;;;5102499;27;20384;-70
2022/04/11 15:58:49;;;;;;;7.57;2.05;;;18.70;88.00;;;;;;5112091;28;20028;-70
2022/04/11 16:01:16;;;;;;;15.65;2.35;;;18.80;88.00;;;;;;5111828;28;20100;-71
2022/04/11 16:03:43;;;;;;;11.85;2.45;;;18.80;88.20;;;;;;5095381;27;20513;-70
2022/04/11 16:06:11;;;;;;;18.52;2.90;;;18.80;87.90;;;;;;5112306;28;20092;-70
2022/04/11 16:08:38;;;;;;;17.17;2.80;;;18.90;87.90;;;;;;5094029;28;20036;-70
2022/04/11 16:11:06;;;;;;;13.90;2.67;;;18.90;88.20;;;;;;5095258;28;20123;-71
2022/04/11 16:13:35;;;;;;;20.58;2.85;;;19.00;88.80;;;;;;5124125;27;20434;-70
2022/04/11 16:16:02;;;;;;;16.65;2.60;;;19.00;88.00;;;;;;5130607;27;20027;-71
2022/04/11 16:18:29;;;;;;;17.35;2.70;;;19.00;87.70;;;;;;5119984;27;20481;-71
2022/04/11 16:20:57;;;;;;;12.65;2.65;;;19.00;88.50;;;;;;5128553;27;20105;-71
2022/04/11 16:23:24;;;;;;;17.90;2.83;;;19.00;89.10;;;;;;5111909;28;20479;-71
2022/04/11 16:25:52;;;;;;;15.23;3.10;;;18.90;88.50;;;;;;5110829;28;20035;-71
2022/04/11 16:28:20;;;;;;;12.20;2.05;;;18.80;87.90;;;;;;5111215;28;20101;-70
2022/04/11 16:30:47;;;;;;;16.35;2.35;;;18.80;88.10;;;;;;5113154;27;20031;-70
2022/04/11 16:33:14;;;;;;;11.15;2.30;;;18.80;88.40;;;;;;5132016;27;20035;-70
2022/04/11 16:35:41;;;;;;;11.77;2.20;;;18.80;88.40;;;;;;5130473;27;20062;-71
2022/04/11 16:38:08;;;;;;;14.80;2.60;;;18.80;89.00;;;;;;5108017;27;20119;-71
2022/04/11 16:40:38;;;;;;;13.95;2.85;;;18.80;88.60;;;;;;5130850;27;20035;-71
2022/04/11 16:43:05;;;;;;;21.73;3.00;;;18.80;88.60;;;;;;5110937;28;20579;-71
2022/04/11 16:45:33;;;;;;;16.13;2.92;;;18.80;89.50;;;;;;5110888;28;20065;-71
2022/04/11 16:48:00;;;;;;;15.50;2.80;;;18.90;90.00;;;;;;5113590;27;20031;-71
2022/04/11 16:50:27;;;;;;;15.50;2.22;;;18.80;89.90;;;;;;5121485;27;20043;-71
2022/04/11 16:52:55;;;;;;;18.25;3.30;;;18.80;89.90;;;;;;5098479;27;20113;-71
2022/04/11 16:55:22;;;;;;;12.73;2.60;;;18.80;90.10;;;;;;5128591;27;20023;-70
2022/04/11 16:57:49;;;;;;;13.10;2.58;;;18.80;90.10;;;;;;5112867;27;20082;-70
2022/04/11 17:00:19;;;;;;;19.08;2.63;;;18.80;89.80;;;;;;5084548;28;20385;-71
2022/04/11 17:02:46;;;;;;;11.02;2.45;;;18.80;89.80;;;;;;5110270;27;20043;-70
2022/04/11 17:05:13;;;;;;;18.85;2.97;;;18.80;90.00;;;;;;5130396;27;20533;-71
2022/04/11 17:07:40;;;;;;;13.60;2.65;;;18.80;90.00;;;;;;5130196;27;20622;-70
2022/04/11 17:10:07;;;;;;;19.23;3.05;;;18.80;90.20;;;;;;5122111;27;20058;-71
2022/04/11 17:12:35;;;;;;;14.07;2.50;;;18.80;90.40;;;;;;5120226;27;20031;-71
2022/04/11 17:15:02;;;;;;;10.65;2.22;;;18.80;90.20;;;;;;5131035;27;20083;-70
2022/04/11 18:03:22;;;;;;;12.23;2.45;;;18.70;89.90;;;;;;5104767;28;20120;-70
2022/04/11 18:05:49;;;;;;;14.60;1.98;;;18.60;89.20;;;;;;5096862;28;20039;-71
2022/04/11 18:08:16;;;;;;;10.80;2.13;;;18.70;89.40;;;;;;5122738;28;20108;-71
2022/04/11 18:10:43;;;;;;;14.63;2.95;;;18.70;89.60;;;;;;5109790;28;20019;-71
2022/04/11 18:13:11;;;;;;;16.35;2.97;;;18.60;88.90;;;;;;5104723;28;20084;-70
2022/04/11 18:15:38;;;;;;;7.32;1.80;;;18.60;88.60;;;;;;5104840;28;20030;-71
2022/04/11 18:18:06;;;;;;;10.82;2.00;;;18.70;89.60;;;;;;5122543;28;20028;-72
2022/04/11 18:20:33;;;;;;;15.23;2.35;;;18.70;89.40;;;;;;5128163;28;20039;-71
2022/04/11 18:23:01;;;;;;;9.75;2.15;;;18.70;88.80;;;;;;5096202;28;20117;-71
2022/04/11 18:25:28;;;;;;;16.15;2.42;;;18.70;89.30;;;;;;5118853;28;20027;-71
2022/04/11 18:27:55;;;;;;;16.45;3.45;;;18.70;89.00;;;;;;5124412;28;20028;-71
2022/04/11 18:33:10;;;;;;;14.60;2.22;;;18.70;88.70;;;;;;5094803;28;20108;-71
2022/04/11 18:35:37;;;;;;;;;;;18.70;88.90;;;;;;5095464;28;20528;-71
2022/04/11 18:38:05;;;;;;;11.00;2.45;;;18.70;88.60;;;;;;5114110;28;19923;-71
2022/04/11 18:40:32;;;;;;;11.73;2.35;;;18.70;88.90;;;;;;5128442;27;20088;-71
2022/04/11 18:42:59;;;;;;;13.13;2.70;;;18.80;89.10;;;;;;5114122;27;20574;-71
2022/04/11 18:45:27;;;;;;;15.07;2.55;;;18.70;87.80;;;;;;5120026;27;20444;-71
2022/04/11 18:47:54;;;;;;;11.45;2.22;;;18.70;88.30;;;;;;5117362;27;20022;-71
2022/04/11 18:50:21;;;;;;;9.50;2.00;;;18.70;87.80;;;;;;5150539;27;20038;-71
2022/04/11 18:52:48;;;;;;;8.68;2.17;;;18.70;88.40;;;;;;5115197;27;20119;-71
2022/04/11 18:55:16;;;;;;;11.75;2.20;;;18.70;88.20;;;;;;5117666;27;20039;-71
2022/04/11 18:57:43;;;;;;;16.80;2.92;;;18.70;88.10;;;;;;5117227;27;20044;-72
2022/04/11 19:00:13;;;;;;;9.90;2.03;;;18.70;88.20;;;;;;5113365;28;20039;-71
